Time;durP1;ratioP1;P1;durP2;ratioP2;P2;SDS_P1;SDS_P2;PMS_P1;PMS_P2;Temp;Humidity;BMP_temperature;BMP_pressure;BME280_temperature;BME280_humidity;BME280_pressure;Samples;Min_cycle;Max_cycle;Signal;HPM_P1;HPM_P2
2023/06/21 00:00:45;;;;;;;12.70;10.37;;;;;;;17.23;100.00;101097.63;4898476;29;20534;-87
2023/06/21 00:03:11;;;;;;;15.37;10.67;;;;;;;17.14;100.00;101093.19;4897886;29;20028;-87
2023/06/21 00:05:39;;;;;;;11.30;10.10;;;;;;;17.21;100.00;101096.28;4894856;29;20040;-87
2023/06/21 00:08:05;;;;;;;14.38;10.63;;;;;;;17.20;100.00;101100.09;4897223;29;20441;-87
2023/06/21 00:10:31;;;;;;;12.65;10.50;;;;;;;17.14;100.00;101095.88;4898173;29;20051;-87
2023/06/21 00:12:58;;;;;;;12.90;9.98;;;;;;;17.15;100.00;101098.28;4897855;29;20060;-87
2023/06/21 00:15:24;;;;;;;13.02;9.73;;;;;;;17.12;100.00;101108.91;4898100;29;20530;-87
2023/06/21 00:17:49;;;;;;;12.10;9.90;;;;;;;17.08;100.00;101108.69;4897337;29;20035;-87
2023/06/21 00:20:15;;;;;;;12.57;9.90;;;;;;;17.14;100.00;101109.44;4898402;29;20397;-87
2023/06/21 00:22:41;;;;;;;13.43;10.60;;;;;;;17.11;100.00;101110.81;4897061;29;20067;-84
2023/06/21 00:25:10;;;;;;;13.85;10.57;;;;;;;17.08;100.00;101116.81;4896166;29;20037;-85
2023/06/21 00:27:36;;;;;;;14.80;11.00;;;;;;;17.15;100.00;101121.88;4897340;29;20040;-85
2023/06/21 00:30:01;;;;;;;14.30;10.93;;;;;;;17.08;100.00;101112.22;4897099;29;20469;-85
2023/06/21 00:32:26;;;;;;;15.03;12.03;;;;;;;17.09;100.00;101113.00;4897921;29;20067;-85
2023/06/21 00:34:52;;;;;;;17.47;12.97;;;;;;;17.08;100.00;101095.97;4896511;29;20304;-86
2023/06/21 00:37:17;;;;;;;15.10;12.33;;;;;;;17.06;100.00;101100.06;4896992;29;20063;-86
2023/06/21 00:39:43;;;;;;;14.43;11.33;;;;;;;17.05;100.00;101112.78;4896578;29;20029;-86
2023/06/21 00:42:08;;;;;;;16.70;11.80;;;;;;;17.01;100.00;101108.28;4897071;29;20064;-85
2023/06/21 00:44:34;;;;;;;15.23;11.68;;;;;;;16.99;100.00;101108.53;4897800;29;20037;-86
2023/06/21 00:47:00;;;;;;;15.10;11.80;;;;;;;17.02;100.00;101118.00;4897702;29;20052;-86
2023/06/21 00:49:27;;;;;;;13.63;11.80;;;;;;;17.02;100.00;101123.41;4896666;29;20511;-86
2023/06/21 00:51:57;;;;;;;15.95;11.55;;;;;;;17.02;100.00;101124.19;4897010;29;20054;-86
2023/06/21 00:54:26;;;;;;;13.45;11.63;;;;;;;16.99;100.00;101118.59;4897048;29;20119;-87
2023/06/21 00:56:53;;;;;;;15.60;11.90;;;;;;;17.00;100.00;101123.69;4894859;29;20032;-86
2023/06/21 00:59:19;;;;;;;14.25;11.95;;;;;;;17.00;100.00;101126.41;4895546;29;20366;-87
2023/06/21 01:01:45;;;;;;;15.20;11.68;;;;;;;16.98;100.00;101128.59;4895677;29;20128;-87
2023/06/21 01:04:11;;;;;;;16.70;12.13;;;;;;;17.01;100.00;101130.72;4897658;29;20052;-87
2023/06/21 01:07:01;;;;;;;17.05;12.30;;;;;;;17.05;100.00;101123.63;4896987;29;20024;-86
2023/06/21 01:09:54;;;;;;;17.95;12.27;;;;;;;17.01;100.00;101133.41;4898669;29;20045;-87
2023/06/21 01:12:26;;;;;;;16.23;11.52;;;;;;;16.99;100.00;101132.13;4898947;29;20036;-87
2023/06/21 01:15:08;;;;;;;15.48;12.65;;;;;;;16.94;100.00;101130.25;4886878;29;20055;-86
2023/06/21 01:17:39;;;;;;;14.40;11.55;;;;;;;16.91;100.00;101137.06;4886968;29;20040;-87
2023/06/21 01:20:13;;;;;;;15.55;11.30;;;;;;;16.92;100.00;101127.84;4879125;29;20116;-86
2023/06/21 01:23:06;;;;;;;17.70;11.13;;;;;;;16.87;100.00;101132.53;4895912;29;20112;-87
2023/06/21 01:26:02;;;;;;;14.57;11.67;;;;;;;16.83;100.00;101129.59;4896916;29;20281;-87
2023/06/21 01:28:33;;;;;;;16.00;11.70;;;;;;;16.85;100.00;101135.53;4895673;29;20024;-87
2023/06/21 01:31:01;;;;;;;14.32;10.90;;;;;;;16.80;100.00;101132.91;4895409;29;20563;-86
2023/06/21 01:33:28;;;;;;;16.13;12.60;;;;;;;16.81;100.00;101148.03;4895714;29;20369;-84
2023/06/21 01:35:54;;;;;;;15.18;12.07;;;;;;;16.73;100.00;101144.09;4896152;29;20482;-88
2023/06/21 01:38:21;;;;;;;16.15;11.35;;;;;;;16.73;100.00;101146.78;4895504;29;20032;-87
2023/06/21 01:40:47;;;;;;;15.10;11.63;;;;;;;16.70;100.00;101152.78;4896357;29;20029;-85
2023/06/21 01:43:13;;;;;;;15.97;12.30;;;;;;;16.67;100.00;101150.66;4895886;29;20032;-86
2023/06/21 01:45:39;;;;;;;18.50;13.05;;;;;;;16.71;100.00;101170.63;4895985;29;20029;-86
2023/06/21 01:48:06;;;;;;;20.15;13.57;;;;;;;16.70;100.00;101146.56;4894952;29;20039;-86
2023/06/21 01:50:34;;;;;;;16.97;12.40;;;;;;;16.70;100.00;101144.66;4896632;29;20040;-86
2023/06/21 01:53:00;;;;;;;17.23;12.75;;;;;;;16.74;100.00;101147.56;4896287;29;20032;-86
2023/06/21 01:55:26;;;;;;;18.50;13.30;;;;;;;16.75;100.00;101150.00;4895763;29;20043;-87
2023/06/21 01:57:52;;;;;;;17.23;12.90;;;;;;;16.73;100.00;101148.69;4874346;29;20047;-87
2023/06/21 02:00:21;;;;;;;18.35;12.95;;;;;;;16.71;100.00;101150.88;4891011;29;20036;-86
2023/06/21 02:02:53;;;;;;;16.10;12.52;;;;;;;16.68;100.00;101168.50;4878667;29;20048;-86
2023/06/21 02:05:19;;;;;;;18.40;12.93;;;;;;;16.65;100.00;101164.47;4894260;29;20040;-86
2023/06/21 02:07:46;;;;;;;18.25;13.82;;;;;;;16.58;100.00;101174.06;4892385;29;20032;-86
2023/06/21 02:10:14;;;;;;;19.15;13.63;;;;;;;16.60;100.00;101169.94;4908067;29;20028;-86
2023/06/21 02:12:41;;;;;;;16.37;12.90;;;;;;;16.57;100.00;101173.22;4914218;29;20040;-86
2023/06/21 02:15:08;;;;;;;18.87;13.20;;;;;;;16.55;100.00;101180.03;4915056;29;20287;-86
2023/06/21 02:17:33;;;;;;;19.23;13.18;;;;;;;16.53;100.00;101182.22;4897781;29;20091;-86
2023/06/21 02:19:59;;;;;;;17.17;12.60;;;;;;;16.46;100.00;101177.16;4895599;29;20028;-86
2023/06/21 02:22:24;;;;;;;17.37;13.23;;;;;;;16.46;100.00;101174.47;4892645;29;20372;-85
2023/06/21 02:24:49;;;;;;;15.47;12.37;;;;;;;16.47;100.00;101184.97;4894519;29;20029;-86
2023/06/21 02:27:15;;;;;;;17.07;13.17;;;;;;;16.38;100.00;101186.72;4894590;29;20032;-86
2023/06/21 02:29:40;;;;;;;15.70;13.17;;;;;;;16.39;100.00;101199.16;4895501;29;20032;-87
2023/06/21 02:32:05;;;;;;;15.30;12.67;;;;;;;16.37;100.00;101195.09;4895360;29;20029;-87
2023/06/21 02:34:31;;;;;;;14.85;12.40;;;;;;;16.34;100.00;101191.88;4894889;29;20044;-87
2023/06/21 02:36:56;;;;;;;17.00;12.80;;;;;;;16.34;100.00;101200.00;4894706;29;20048;-87
2023/06/21 02:39:22;;;;;;;16.30;12.27;;;;;;;16.32;100.00;101212.19;4890910;29;20039;-87
2023/06/21 02:41:48;;;;;;;15.27;12.10;;;;;;;16.28;100.00;101209.28;4891824;29;20116;-87
2023/06/21 02:44:14;;;;;;;16.42;13.20;;;;;;;16.27;100.00;101201.44;4895872;29;20033;-87
2023/06/21 02:46:39;;;;;;;17.63;12.50;;;;;;;16.28;100.00;101205.75;4890333;29;20045;-88
2023/06/21 02:49:04;;;;;;;19.30;13.93;;;;;;;16.28;100.00;101214.69;4884821;29;20048;-87
2023/06/21 02:51:30;;;;;;;19.57;13.80;;;;;;;16.22;100.00;101209.63;4884726;29;20433;-88
2023/06/21 02:53:55;;;;;;;18.60;13.37;;;;;;;16.23;100.00;101213.94;4902641;29;20077;-87
2023/06/21 02:56:20;;;;;;;15.82;12.00;;;;;;;16.24;100.00;101218.25;4902163;29;20109;-88
2023/06/21 03:01:21;;;;;;;20.30;14.43;;;;;;;16.24;100.00;101220.97;5175542;23;20064;-88
2023/06/21 03:03:47;;;;;;;19.97;13.47;;;;;;;16.23;100.00;101225.53;4910946;29;20092;-88
2023/06/21 03:06:13;;;;;;;18.73;12.75;;;;;;;16.21;100.00;101235.84;4897433;29;20033;-88
2023/06/21 03:08:38;;;;;;;17.60;13.13;;;;;;;16.17;100.00;101232.91;4913191;29;20431;-88
2023/06/21 03:11:08;;;;;;;20.20;13.90;;;;;;;16.18;100.00;101242.63;4911918;29;20024;-88
2023/06/21 03:13:38;;;;;;;19.80;14.23;;;;;;;16.22;100.00;101242.84;4912997;29;20507;-88
2023/06/21 03:16:04;;;;;;;20.00;14.30;;;;;;;16.20;100.00;101251.25;4913167;29;20064;-88
2023/06/21 03:18:29;;;;;;;19.23;13.88;;;;;;;16.19;100.00;101244.25;4910435;29;20099;-87
2023/06/21 03:20:55;;;;;;;17.83;13.80;;;;;;;16.19;100.00;101249.66;4921907;29;20032;-87
2023/06/21 03:23:20;;;;;;;19.70;14.27;;;;;;;16.22;100.00;101264.47;4917834;29;20035;-87
2023/06/21 03:25:45;;;;;;;16.80;13.60;;;;;;;16.21;100.00;101270.97;4913687;29;20291;-87
2023/06/21 03:28:11;;;;;;;19.70;14.30;;;;;;;16.19;100.00;101273.16;4913784;29;20031;-87
2023/06/21 03:30:36;;;;;;;18.13;13.43;;;;;;;16.19;100.00;101267.75;4912163;29;20036;-90
2023/06/21 03:33:01;;;;;;;20.97;14.10;;;;;;;16.23;100.00;101270.72;4896578;29;20029;-90
2023/06/21 03:35:29;;;;;;;18.73;13.43;;;;;;;16.17;100.00;101257.25;4911635;29;20084;-89
2023/06/21 03:37:54;;;;;;;18.80;14.00;;;;;;;16.26;100.00;101273.66;4913347;29;20650;-89
2023/06/21 03:40:20;;;;;;;18.40;13.65;;;;;;;16.25;100.00;101263.13;4913409;29;20034;-89
2023/06/21 03:42:46;;;;;;;20.10;14.85;;;;;;;16.36;100.00;101267.34;4912099;29;20033;-89
2023/06/21 03:45:11;;;;;;;20.07;14.93;;;;;;;16.40;100.00;101265.66;4913547;29;20473;-89
2023/06/21 03:47:39;;;;;;;18.90;13.63;;;;;;;16.45;100.00;101257.47;4913437;29;20123;-88
2023/06/21 03:50:05;;;;;;;19.60;14.65;;;;;;;16.49;100.00;101258.53;4913560;29;20032;-89
2023/06/21 03:52:30;;;;;;;18.10;14.25;;;;;;;16.53;100.00;101264.16;4910095;29;20515;-90
2023/06/21 03:54:55;;;;;;;19.40;13.67;;;;;;;16.58;100.00;101260.63;4904516;29;20112;-90
2023/06/21 03:57:21;;;;;;;21.33;15.50;;;;;;;16.65;100.00;101271.88;4895026;29;20068;-89
2023/06/21 03:59:46;;;;;;;20.55;15.50;;;;;;;16.81;100.00;101280.63;4894872;29;20036;-89
2023/06/21 04:02:11;;;;;;;21.53;15.47;;;;;;;16.86;100.00;101275.16;4895906;29;20074;-90
2023/06/21 04:04:38;;;;;;;21.57;15.50;;;;;;;17.04;100.00;101287.16;4899635;29;20403;-90
2023/06/21 04:07:04;;;;;;;22.17;16.98;;;;;;;17.11;100.00;101286.78;4909809;29;20024;-90
2023/06/21 04:09:29;;;;;;;21.50;15.87;;;;;;;17.16;100.00;101278.59;4913866;29;20115;-89
2023/06/21 04:11:55;;;;;;;21.63;15.20;;;;;;;17.27;100.00;101292.81;4914657;29;20582;-89
2023/06/21 04:14:20;;;;;;;21.70;15.20;;;;;;;17.34;100.00;101285.13;4913483;29;20036;-90
2023/06/21 04:16:45;;;;;;;21.00;15.25;;;;;;;17.33;100.00;101291.66;4912888;29;20059;-90
2023/06/21 04:19:10;;;;;;;22.53;16.20;;;;;;;17.39;100.00;101301.28;4913710;29;20475;-90
2023/06/21 04:21:36;;;;;;;21.63;15.73;;;;;;;17.38;100.00;101302.41;4911016;29;20027;-89
2023/06/21 04:24:01;;;;;;;20.53;15.33;;;;;;;17.36;100.00;101301.09;4909339;29;20080;-90
2023/06/21 04:26:28;;;;;;;22.70;15.73;;;;;;;17.46;100.00;101308.25;4914117;29;20031;-90
2023/06/21 04:28:54;;;;;;;21.55;15.52;;;;;;;17.48;100.00;101306.06;4914521;29;20051;-89
2023/06/21 04:31:19;;;;;;;22.10;15.90;;;;;;;17.47;100.00;101313.38;4917550;29;20068;-89
2023/06/21 04:33:44;;;;;;;22.10;16.47;;;;;;;17.53;100.00;101311.38;4916575;29;20035;-90
2023/06/21 04:36:10;;;;;;;22.37;16.43;;;;;;;17.59;100.00;101310.22;4914858;29;20514;-90
2023/06/21 04:38:37;;;;;;;25.70;17.33;;;;;;;17.75;100.00;101326.25;4914990;29;20071;-88
2023/06/21 04:41:02;;;;;;;22.73;17.55;;;;;;;17.96;100.00;101307.78;4917156;29;20167;-91
2023/06/21 04:43:28;;;;;;;24.58;17.30;;;;;;;18.14;100.00;101327.84;4917139;29;20106;-88
2023/06/21 04:45:53;;;;;;;21.60;16.60;;;;;;;18.15;100.00;101332.16;4913803;29;20087;-88
2023/06/21 04:48:18;;;;;;;24.27;16.93;;;;;;;18.17;100.00;101319.13;4913591;29;20028;-87
2023/06/21 04:50:45;;;;;;;22.33;16.57;;;;;;;18.35;100.00;101319.34;4912556;29;20425;-88
2023/06/21 04:53:14;;;;;;;26.17;16.90;;;;;;;18.90;100.00;101322.13;4916441;29;20059;-87
2023/06/21 04:55:42;;;;;;;24.33;17.15;;;;;;;19.29;100.00;101332.75;4915690;29;20679;-88
2023/06/21 04:58:09;;;;;;;21.77;16.23;;;;;;;19.14;100.00;101315.69;4910954;29;20040;-88
2023/06/21 05:00:35;;;;;;;20.92;15.57;;;;;;;18.99;100.00;101321.44;4914531;29;20032;-87
2023/06/21 05:03:00;;;;;;;20.08;16.25;;;;;;;19.54;100.00;101328.69;4914941;29;20048;-87
2023/06/21 05:05:26;;;;;;;21.53;15.83;;;;;;;20.22;100.00;101330.63;4916378;29;20044;-87
2023/06/21 05:07:51;;;;;;;23.27;15.70;;;;;;;20.87;100.00;101337.38;4915451;29;20541;-88
2023/06/21 05:10:16;;;;;;;22.00;14.53;;;;;;;21.68;100.00;101353.53;4914926;29;20115;-88
2023/06/21 05:12:42;;;;;;;18.67;14.83;;;;;;;22.31;100.00;101360.50;4915832;29;20036;-88
2023/06/21 05:15:07;;;;;;;20.50;14.50;;;;;;;22.60;100.00;101353.56;4913889;29;20323;-86
2023/06/21 05:17:34;;;;;;;18.20;13.80;;;;;;;21.92;100.00;101358.50;4908490;29;20038;-86
2023/06/21 05:19:59;;;;;;;18.83;13.68;;;;;;;20.91;100.00;101353.06;4892222;29;20028;-88
2023/06/21 05:22:25;;;;;;;20.77;14.60;;;;;;;20.29;100.00;101366.34;4897231;29;20027;-88
2023/06/21 05:24:50;;;;;;;20.95;15.05;;;;;;;20.28;100.00;101362.03;4911074;29;20369;-89
2023/06/21 05:27:15;;;;;;;21.50;16.60;;;;;;;20.86;100.00;101373.88;4916273;29;20043;-87
2023/06/21 05:29:41;;;;;;;18.43;15.93;;;;;;;21.55;100.00;101374.34;4923847;29;20024;-89
2023/06/21 05:32:07;;;;;;;19.10;15.00;;;;;;;21.52;100.00;101374.19;4922629;29;20032;-89
2023/06/21 05:34:32;;;;;;;18.73;14.70;;;;;;;21.46;100.00;101374.34;4924262;29;20028;-89
2023/06/21 05:36:57;;;;;;;22.13;15.70;;;;;;;21.17;100.00;101373.00;4919987;29;20167;-88
2023/06/21 05:39:23;;;;;;;19.00;15.20;;;;;;;20.81;100.00;101365.06;4916792;29;20404;-88
2023/06/21 05:41:48;;;;;;;20.33;14.98;;;;;;;20.50;100.00;101371.28;4900756;29;20039;-84
2023/06/21 05:44:14;;;;;;;18.73;14.87;;;;;;;20.17;100.00;101375.09;4914401;29;20035;-84
2023/06/21 05:46:40;;;;;;;20.17;15.10;;;;;;;19.92;100.00;101376.50;4909181;29;20737;-84
2023/06/21 05:49:05;;;;;;;21.57;14.77;;;;;;;20.19;100.00;101372.84;4913495;29;20118;-86
2023/06/21 05:51:31;;;;;;;19.83;15.20;;;;;;;20.38;100.00;101374.56;4911889;29;20055;-83
2023/06/21 05:53:57;;;;;;;18.88;15.65;;;;;;;20.37;100.00;101390.09;4915314;29;20032;-83
2023/06/21 05:56:26;;;;;;;21.53;16.37;;;;;;;20.64;100.00;101393.75;4914971;29;20088;-83
2023/06/21 05:58:52;;;;;;;21.73;15.77;;;;;;;20.77;100.00;101391.31;4902540;29;20104;-83
2023/06/21 06:01:17;;;;;;;18.63;14.95;;;;;;;20.76;100.00;101400.59;4919698;29;20039;-83
2023/06/21 06:03:43;;;;;;;21.93;15.07;;;;;;;20.73;100.00;101412.88;4910785;29;20036;-83
2023/06/21 06:06:09;;;;;;;19.73;14.80;;;;;;;20.81;100.00;101409.41;4912593;29;20051;-83
2023/06/21 06:08:35;;;;;;;20.05;16.05;;;;;;;20.96;100.00;101421.00;4913294;29;20028;-83
2023/06/21 06:11:00;;;;;;;17.40;15.03;;;;;;;20.95;100.00;101417.50;4910845;29;20079;-84
2023/06/21 06:13:28;;;;;;;20.80;16.13;;;;;;;21.20;100.00;101407.00;4907605;29;20393;-84
2023/06/21 06:15:53;;;;;;;18.77;15.95;;;;;;;21.66;100.00;101406.78;4901245;29;20400;-83
2023/06/21 06:18:19;;;;;;;20.60;15.00;;;;;;;21.84;100.00;101419.31;4912537;29;20386;-84
2023/06/21 06:20:44;;;;;;;17.20;14.20;;;;;;;21.82;100.00;101412.59;4911320;29;20024;-84
2023/06/21 06:23:11;;;;;;;18.70;15.50;;;;;;;21.55;100.00;101423.41;4912052;29;20027;-84
2023/06/21 06:25:36;;;;;;;16.38;13.18;;;;;;;21.41;100.00;101430.94;4912965;29;20434;-84
2023/06/21 06:28:01;;;;;;;17.48;13.15;;;;;;;21.42;100.00;101429.81;4914606;29;20063;-83
2023/06/21 06:30:27;;;;;;;19.30;14.40;;;;;;;21.55;100.00;101436.25;4933519;29;20024;-83
2023/06/21 06:32:52;;;;;;;19.43;14.77;;;;;;;21.58;100.00;101443.81;4928115;29;20412;-85
2023/06/21 06:35:17;;;;;;;21.43;15.93;;;;;;;21.65;100.00;101446.09;4908925;29;20047;-84
2023/06/21 06:37:43;;;;;;;17.40;14.03;;;;;;;21.93;100.00;101452.84;4889058;29;20766;-84
2023/06/21 06:40:08;;;;;;;19.55;14.80;;;;;;;21.98;100.00;101454.63;4909894;29;20029;-84
2023/06/21 06:42:34;;;;;;;17.47;14.57;;;;;;;21.95;100.00;101455.28;4912260;29;20036;-83
2023/06/21 06:47:34;;;;;;;15.52;13.70;;;;;;;22.10;100.00;101470.34;5998298;23;20018;-83
2023/06/21 06:50:04;;;;;;;16.52;13.98;;;;;;;22.08;100.00;101478.84;4931397;29;20038;-81
2023/06/21 06:52:29;;;;;;;18.83;13.47;;;;;;;22.08;100.00;101475.34;4926732;29;20046;-83
2023/06/21 06:54:55;;;;;;;20.17;14.57;;;;;;;22.24;100.00;101479.19;4934532;29;20295;-83
2023/06/21 06:57:20;;;;;;;15.80;12.60;;;;;;;22.54;100.00;101487.53;4931097;29;20032;-83
2023/06/21 06:59:45;;;;;;;14.37;11.83;;;;;;;22.84;100.00;101490.34;4932440;29;20032;-82
2023/06/21 07:02:10;;;;;;;13.90;11.00;;;;;;;22.98;100.00;101498.34;4925953;29;20460;-83
2023/06/21 07:04:36;;;;;;;12.27;10.57;;;;;;;23.51;100.00;101495.41;4917595;29;20024;-83
2023/06/21 07:07:01;;;;;;;11.53;9.67;;;;;;;23.74;100.00;101484.97;4907338;29;20059;-83
2023/06/21 07:09:27;;;;;;;10.33;8.93;;;;;;;23.97;100.00;101494.84;4918559;29;20050;-83
2023/06/21 07:11:59;;;;;;;14.95;9.23;;;;;;;24.15;100.00;101500.97;4925578;29;20500;-83
2023/06/21 07:14:24;;;;;;;10.67;8.50;;;;;;;24.25;100.00;101492.38;4926263;29;20055;-83
2023/06/21 07:16:52;;;;;;;12.37;8.90;;;;;;;23.97;100.00;101487.44;4916965;29;20331;-83
2023/06/21 07:19:18;;;;;;;10.77;8.65;;;;;;;23.56;100.00;101495.25;4919056;29;20046;-83
2023/06/21 07:21:44;;;;;;;10.80;8.40;;;;;;;23.11;100.00;101493.00;4914639;29;20028;-83
2023/06/21 07:24:10;;;;;;;11.85;8.85;;;;;;;23.04;100.00;101504.44;4932716;29;20027;-83
2023/06/21 07:26:36;;;;;;;11.82;8.77;;;;;;;23.03;100.00;101499.31;4920087;29;20140;-83
2023/06/21 07:29:01;;;;;;;12.50;8.83;;;;;;;22.95;100.00;101501.72;4918230;29;20041;-84
2023/06/21 07:31:27;;;;;;;11.07;8.70;;;;;;;22.90;100.00;101501.94;4917572;29;20023;-83
2023/06/21 07:33:56;;;;;;;12.80;8.97;;;;;;;22.98;100.00;101500.31;4926352;29;20488;-82
2023/06/21 07:36:21;;;;;;;10.57;8.63;;;;;;;23.01;100.00;101502.34;4917583;29;20031;-84
2023/06/21 07:38:48;;;;;;;11.00;8.33;;;;;;;23.14;100.00;101495.06;4912622;29;20035;-84
2023/06/21 07:41:13;;;;;;;11.13;8.25;;;;;;;23.28;98.98;101503.88;4929011;29;20110;-84
2023/06/21 07:43:39;;;;;;;12.23;8.93;;;;;;;23.36;100.00;101506.94;4906976;29;20116;-84
2023/06/21 07:46:04;;;;;;;9.27;8.37;;;;;;;23.40;98.10;101511.41;4921915;29;20083;-84
2023/06/21 07:48:29;;;;;;;11.93;9.00;;;;;;;23.28;95.02;101495.69;4924393;29;20555;-84
2023/06/21 07:50:55;;;;;;;12.03;9.87;;;;;;;23.33;95.33;101502.94;4918409;29;20052;-85
2023/06/21 07:53:20;;;;;;;15.52;10.15;;;;;;;23.40;97.56;101505.94;4893846;29;20437;-84
2023/06/21 07:55:45;;;;;;;10.50;9.37;;;;;;;23.71;97.41;101504.81;4911896;29;20036;-85
2023/06/21 07:58:11;;;;;;;11.67;9.97;;;;;;;24.14;95.63;101508.41;4914266;29;20036;-84
2023/06/21 08:00:36;;;;;;;12.10;10.17;;;;;;;24.52;93.96;101506.59;4916899;29;20476;-84
2023/06/21 08:03:02;;;;;;;13.80;11.13;;;;;;;24.73;92.37;101505.78;4926219;29;20091;-84
2023/06/21 08:05:27;;;;;;;13.32;11.48;;;;;;;24.83;85.52;101513.59;4934384;29;20035;-86
2023/06/21 08:07:53;;;;;;;9.43;8.53;;;;;;;25.02;84.25;101523.19;4934675;29;20078;-87
2023/06/21 08:10:19;;;;;;;9.15;6.93;;;;;;;24.90;79.04;101524.78;4914832;29;20075;-86
2023/06/21 08:12:44;;;;;;;9.52;7.93;;;;;;;24.80;81.57;101519.75;4914243;29;20062;-84
2023/06/21 08:15:10;;;;;;;8.47;7.60;;;;;;;24.86;83.83;101532.06;4930160;29;20027;-84
2023/06/21 08:17:35;;;;;;;8.30;7.40;;;;;;;24.91;83.40;101531.88;4915524;29;20036;-84
2023/06/21 08:20:01;;;;;;;8.63;7.72;;;;;;;24.92;82.51;101538.94;4926303;29;20056;-84
2023/06/21 08:22:26;;;;;;;9.27;8.23;;;;;;;24.94;81.55;101525.72;4935795;29;20078;-86
2023/06/21 08:24:54;;;;;;;10.87;7.50;;;;;;;25.05;83.22;101530.75;4931540;29;20035;-84
2023/06/21 08:27:19;;;;;;;10.07;8.88;;;;;;;25.13;80.00;101529.84;4922933;29;20027;-87
2023/06/21 08:29:47;;;;;;;8.43;7.63;;;;;;;25.38;83.30;101532.63;4913488;29;20484;-85
2023/06/21 08:32:12;;;;;;;8.73;7.90;;;;;;;25.57;82.21;101542.22;4906704;29;20028;-86
2023/06/21 08:34:37;;;;;;;9.00;8.10;;;;;;;25.40;76.56;101541.28;4917070;29;20526;-86
2023/06/21 08:37:03;;;;;;;8.00;6.63;;;;;;;25.34;73.38;101537.19;4904573;29;20039;-85
2023/06/21 08:39:28;;;;;;;7.40;6.57;;;;;;;25.29;76.08;101538.19;4913782;29;20111;-85
2023/06/21 08:41:53;;;;;;;9.83;6.70;;;;;;;25.06;72.10;101538.66;4915634;29;20044;-85
2023/06/21 08:44:20;;;;;;;7.10;6.50;;;;;;;25.00;68.04;101528.25;4902072;29;20028;-87
2023/06/21 08:46:47;;;;;;;6.82;5.68;;;;;;;25.29;70.86;101537.41;4910839;29;20024;-85
2023/06/21 08:49:18;;;;;;;5.40;4.90;;;;;;;25.42;70.07;101532.72;4901975;29;20071;-85
2023/06/21 08:51:45;;;;;;;9.20;4.60;;;;;;;25.44;69.47;101535.97;4912290;29;20071;-85
2023/06/21 08:54:12;;;;;;;5.00;4.60;;;;;;;25.22;66.76;101533.28;4920864;29;20032;-87
2023/06/21 08:56:46;;;;;;;8.00;4.60;;;;;;;25.32;70.35;101531.25;4924324;29;20039;-87
2023/06/21 08:59:21;;;;;;;5.32;4.45;;;;;;;25.53;69.36;101534.72;4919253;29;20043;-86
2023/06/21 09:02:03;;;;;;;6.25;4.75;;;;;;;25.76;69.50;101528.72;4921992;29;20052;-86
2023/06/21 09:04:32;;;;;;;7.25;5.30;;;;;;;25.99;68.09;101536.47;4931347;29;20032;-86
2023/06/21 09:06:58;;;;;;;9.23;6.47;;;;;;;26.10;66.10;101534.84;4922003;29;20032;-85
2023/06/21 09:09:25;;;;;;;7.27;5.97;;;;;;;26.33;66.49;101539.03;4915114;29;20815;-86
2023/06/21 09:11:51;;;;;;;5.68;4.90;;;;;;;26.25;66.37;101540.78;4898496;29;20043;-85
2023/06/21 09:14:19;;;;;;;6.97;4.55;;;;;;;26.07;62.43;101540.22;4926372;29;20090;-87
2023/06/21 09:16:46;;;;;;;5.90;5.30;;;;;;;26.02;61.19;101543.22;4933468;29;20042;-85
2023/06/21 09:19:12;;;;;;;8.80;5.57;;;;;;;25.96;63.63;101551.69;4913202;29;20086;-85
2023/06/21 09:21:40;;;;;;;6.95;4.60;;;;;;;26.04;65.23;101551.88;4916811;29;20055;-85
2023/06/21 09:24:06;;;;;;;5.47;4.97;;;;;;;26.08;61.86;101539.88;4920614;29;20028;-86
2023/06/21 09:26:31;;;;;;;3.50;3.17;;;;;;;26.12;56.02;101549.03;4914674;29;20668;-86
2023/06/21 09:28:56;;;;;;;5.33;4.13;;;;;;;26.44;56.00;101553.88;4915480;29;20080;-85
2023/06/21 09:31:22;;;;;;;4.83;3.70;;;;;;;26.69;58.71;101549.06;4927979;29;20031;-86
2023/06/21 09:33:48;;;;;;;4.45;4.05;;;;;;;26.84;58.79;101561.28;4934223;29;20035;-84
2023/06/21 09:36:14;;;;;;;4.90;4.07;;;;;;;26.69;56.25;101551.00;4927239;29;20031;-84
2023/06/21 09:38:39;;;;;;;4.03;3.55;;;;;;;26.42;56.45;101556.97;4918786;29;20035;-84
2023/06/21 09:41:07;;;;;;;6.47;3.17;;;;;;;26.63;58.22;101561.47;4925675;29;20038;-83
2023/06/21 09:43:32;;;;;;;7.15;4.35;;;;;;;26.84;56.94;101569.53;4926761;29;20098;-83
2023/06/21 09:46:09;;;;;;;7.90;4.90;;;;;;;26.95;57.95;101572.56;4918766;29;20040;-83
2023/06/21 09:48:39;;;;;;;4.50;4.10;;;;;;;27.10;54.52;101573.72;4920719;29;20090;-84
2023/06/21 09:51:10;;;;;;;6.60;3.50;;;;;;;27.21;54.66;101568.47;4918165;29;20669;-84
2023/06/21 09:53:36;;;;;;;4.43;4.03;;;;;;;27.27;54.06;101567.06;4920558;29;20032;-83
2023/06/21 09:56:02;;;;;;;4.28;3.88;;;;;;;27.22;51.44;101564.56;4916156;29;20395;-85
2023/06/21 09:58:31;;;;;;;5.38;4.43;;;;;;;27.26;53.57;101562.72;4933845;29;20036;-84
2023/06/21 10:00:57;;;;;;;5.83;4.67;;;;;;;27.39;55.36;101563.44;4926210;29;20095;-84
2023/06/21 10:03:24;;;;;;;5.70;5.10;;;;;;;27.69;54.69;101575.94;4913474;29;20780;-85
2023/06/21 10:05:54;;;;;;;7.97;4.93;;;;;;;27.87;55.37;101576.34;4929808;29;20488;-84
2023/06/21 10:08:28;;;;;;;7.83;5.20;;;;;;;27.85;55.85;101576.72;4927712;29;20032;-84
2023/06/21 10:10:54;;;;;;;4.97;4.40;;;;;;;27.98;54.17;101579.34;4915061;29;20715;-83
2023/06/21 10:13:33;;;;;;;4.57;3.60;;;;;;;28.04;54.48;101583.41;4915940;29;20032;-85
2023/06/21 10:16:03;;;;;;;3.47;3.17;;;;;;;27.96;53.09;101586.00;4926752;29;20058;-85
2023/06/21 10:18:29;;;;;;;4.00;3.10;;;;;;;28.29;53.02;101591.44;4932200;29;20040;-85
2023/06/21 10:21:01;;;;;;;4.10;2.80;;;;;;;28.40;50.70;101573.94;4919794;29;20536;-84
2023/06/21 10:23:28;;;;;;;6.43;3.60;;;;;;;28.40;49.51;101592.47;4913477;29;20644;-84
2023/06/21 10:25:59;;;;;;;3.75;3.20;;;;;;;28.47;46.54;101592.63;4905365;29;20507;-84
2023/06/21 10:28:26;;;;;;;2.87;2.63;;;;;;;28.41;48.21;101594.06;4925238;29;20039;-84
2023/06/21 10:30:56;;;;;;;4.17;3.60;;;;;;;28.37;48.07;101602.25;4896650;29;20301;-84
2023/06/21 10:43:44;;;;;;;4.70;4.22;;;;;;;27.52;51.25;101608.19;5862517;23;20107;-83
2023/06/21 10:46:11;;;;;;;6.43;4.93;;;;;;;27.75;52.45;101605.59;4914206;29;20060;-83
2023/06/21 10:48:37;;;;;;;6.20;5.47;;;;;;;28.09;51.67;101613.44;4895036;29;20063;-84
2023/06/21 10:51:04;;;;;;;6.15;4.85;;;;;;;28.05;51.57;101615.31;4893911;29;20501;-84
2023/06/21 10:53:31;;;;;;;6.40;4.60;;;;;;;27.98;52.59;101615.13;4883076;29;20061;-84
2023/06/21 10:55:58;;;;;;;5.77;4.87;;;;;;;28.14;50.76;101609.63;4878095;29;20313;-84
2023/06/21 10:58:24;;;;;;;6.03;3.90;;;;;;;28.16;50.74;101615.56;4893924;29;20036;-84
2023/06/21 11:00:50;;;;;;;5.00;4.60;;;;;;;28.01;51.27;101612.47;4878042;29;20452;-84
2023/06/21 11:03:23;;;;;;;4.85;4.40;;;;;;;28.29;49.05;101616.25;4893023;29;20037;-85
2023/06/21 11:05:52;;;;;;;4.80;4.03;;;;;;;28.44;47.31;101604.34;4894901;29;20048;-84
2023/06/21 11:08:30;;;;;;;6.22;4.57;;;;;;;28.35;50.07;101621.09;4895024;29;20486;-85
2023/06/21 11:10:56;;;;;;;6.63;4.57;;;;;;;28.35;49.82;101618.34;4894995;29;20039;-84
2023/06/21 11:13:37;;;;;;;8.17;4.40;;;;;;;28.75;48.58;101624.69;4894110;29;20052;-85
2023/06/21 11:16:15;;;;;;;5.90;5.32;;;;;;;28.88;48.63;101614.28;4894828;29;20036;-84
2023/06/21 11:18:49;;;;;;;5.70;5.15;;;;;;;28.90;48.55;101619.44;4893647;29;20477;-84
2023/06/21 11:21:34;;;;;;;5.63;5.00;;;;;;;28.56;49.17;101623.50;4893321;29;20393;-85
2023/06/21 11:24:05;;;;;;;4.87;4.47;;;;;;;28.68;48.87;101618.97;4894701;29;20334;-85